Huvudsida
METAR-TAF:

METAR-TAF

Flygplatser :

Kuwaits internationella flygplats

Kuwait, Kuwait

latitud: 29-13N, longitud: 047-59E, höjd: 55 m

Aktuellt väderrapport

Denna rapport gjordes för 38 minuter sedan, klockan 23:00 UTC
Vind 5 kt från nord/nordväst
Temperatur 35°C
Fuktighet 20%
Tryck 997 hPa
Sikt: 8000 m
Klar himmel

METAR: OKBK 222300Z 34005KT 8000 SKC 35/09 Q0997 NOSIG

Tid: 02:38 (23:38 UTC)

Väderprognos

Denna rapport gjordes för 53 minuter sedan, klockan 22:45 UTC
Prognos gäller från 23 kl. 00 UTC till 24 kl. 06 UTC
Vind 8 kt från nord/nordväst i byarna ända upp till 18 kt
Sikt 10 km eller mer
Inga moln under 1 500 m eller inga cumulonimbus
Temporärt
från 23 kl. 00 UTC till 23 kl. 04 UTC
Vind 3 kt varierande vindriktning

TAF: OKBK 222245Z 2300/2406 33008G18KT CAVOK TEMPO 2300/2304 VRB03KT

Aktuella väderrapporter och prognoser från 4000 flygplatser (METAR- och TAF-rapporter).

De tillgängliga stationerna syns som gula och röda prickar på kartan.

För musen över prickarna för att se namnen på stationerna.

Klicka sedan för att få väderrapporter och prognoser.

För att ändra kartan: Klicka på de gröna knapparna med ett svart kors på för att zooma in; den gröna knappen med ett streck på för att zooma ut; eller på de gröna pilarna för angränsande kartor.


METAR-TAF: